createdAt,value
2023-05-08T00:00:47.167Z,12.29
2023-05-08T00:03:14.054Z,12.26
2023-05-08T00:05:43.595Z,12.32
2023-05-08T00:08:10.326Z,12.39
2023-05-08T00:10:37.290Z,12.39
2023-05-08T00:13:03.946Z,12.38
2023-05-08T00:15:30.609Z,12.37
2023-05-08T00:17:57.559Z,12.30
2023-05-08T00:20:24.329Z,12.29
2023-05-08T00:22:50.912Z,12.26
2023-05-08T00:25:17.662Z,12.14
2023-05-08T00:27:44.228Z,12.19
2023-05-08T00:30:11.507Z,12.28
2023-05-08T00:32:38.398Z,12.35
2023-05-08T00:35:05.329Z,12.31
2023-05-08T00:37:31.959Z,12.32
2023-05-08T00:39:58.554Z,12.33
2023-05-08T00:42:25.228Z,12.35
2023-05-08T00:44:52.401Z,12.35
2023-05-08T00:47:22.437Z,12.31
2023-05-08T00:49:49.380Z,12.27
2023-05-08T00:52:17.506Z,12.23
2023-05-08T00:54:44.826Z,12.22
2023-05-08T00:57:12.617Z,12.15
2023-05-08T00:59:41.515Z,12.16
2023-05-08T01:02:08.884Z,12.15
2023-05-08T01:04:37.170Z,12.14
2023-05-08T01:07:03.790Z,12.17
2023-05-08T01:09:30.521Z,12.18
2023-05-08T01:11:59.871Z,12.17
2023-05-08T01:14:57.145Z,12.16
2023-05-08T01:17:43.373Z,12.11
2023-05-08T01:20:30.231Z,12.01
2023-05-08T01:23:17.517Z,11.94
2023-05-08T01:26:22.227Z,11.83
2023-05-08T01:29:12.035Z,11.78
2023-05-08T01:32:12.516Z,11.82
2023-05-08T01:34:51.993Z,11.81
2023-05-08T01:37:27.833Z,11.82
2023-05-08T01:40:30.031Z,11.88
2023-05-08T01:43:27.592Z,11.84
2023-05-08T01:45:56.575Z,11.87
2023-05-08T01:48:30.585Z,11.83
2023-05-08T01:51:04.797Z,11.81
2023-05-08T01:53:37.180Z,11.74
2023-05-08T01:56:11.221Z,11.80
2023-05-08T01:58:39.278Z,11.91
2023-05-08T02:01:06.258Z,11.97
2023-05-08T02:03:34.353Z,12.04
2023-05-08T02:06:02.397Z,12.04
2023-05-08T02:08:31.266Z,11.94
2023-05-08T02:11:01.010Z,11.96
2023-05-08T02:13:29.991Z,12.01
2023-05-08T02:15:59.101Z,12.04
2023-05-08T02:18:28.415Z,11.98
2023-05-08T02:20:56.911Z,11.98
2023-05-08T02:23:26.747Z,11.92
2023-05-08T02:25:54.673Z,11.98
2023-05-08T02:28:24.043Z,11.96
2023-05-08T02:30:52.644Z,11.97
2023-05-08T02:33:20.793Z,12.03
2023-05-08T02:35:50.662Z,12.04
2023-05-08T02:38:20.789Z,12.00
2023-05-08T02:40:55.653Z,11.96
2023-05-08T02:43:22.371Z,11.97
2023-05-08T02:45:58.331Z,12.06
2023-05-08T02:48:33.941Z,12.04
2023-05-08T02:51:18.368Z,11.97
2023-05-08T02:53:56.658Z,11.97
2023-05-08T02:56:58.284Z,11.97
2023-05-08T02:59:39.826Z,11.99
2023-05-08T03:02:09.476Z,11.93
2023-05-08T03:04:41.349Z,11.98
2023-05-08T03:07:08.328Z,11.99
2023-05-08T03:09:52.098Z,11.95
2023-05-08T03:12:23.597Z,11.96
2023-05-08T03:15:00.181Z,12.03
2023-05-08T03:17:31.330Z,12.07
2023-05-08T03:20:02.688Z,12.06
2023-05-08T03:22:31.445Z,11.98
2023-05-08T03:25:01.536Z,11.92
2023-05-08T03:27:29.978Z,11.94
2023-05-08T03:29:58.030Z,11.95
2023-05-08T03:32:27.677Z,11.97
2023-05-08T03:34:55.915Z,11.98
2023-05-08T03:37:22.589Z,11.95
2023-05-08T03:39:49.330Z,12.03
2023-05-08T03:42:21.477Z,12.16
2023-05-08T03:44:52.550Z,12.19
2023-05-08T03:47:20.217Z,12.09
2023-05-08T03:49:48.084Z,12.09
2023-05-08T03:52:15.327Z,12.16
2023-05-08T03:54:42.186Z,12.17
2023-05-08T03:57:09.320Z,12.25
2023-05-08T04:00:03.682Z,12.27
2023-05-08T04:02:40.715Z,12.21
2023-05-08T04:05:25.397Z,12.27
2023-05-08T04:08:09.702Z,12.25
2023-05-08T04:10:44.414Z,12.38
2023-05-08T04:13:14.589Z,12.33
2023-05-08T04:15:52.998Z,12.47
2023-05-08T04:18:28.290Z,12.59
2023-05-08T04:20:56.322Z,12.68
2023-05-08T04:23:24.906Z,12.57
2023-05-08T04:25:53.392Z,12.60
2023-05-08T04:28:21.796Z,12.61
2023-05-08T04:30:49.512Z,12.69
2023-05-08T04:33:18.690Z,12.64
2023-05-08T04:35:46.358Z,12.52
2023-05-08T04:38:12.952Z,12.41
2023-05-08T04:40:39.565Z,12.47
2023-05-08T04:43:06.531Z,12.37
2023-05-08T04:45:36.000Z,12.31
2023-05-08T04:48:02.709Z,12.37
2023-05-08T04:50:29.474Z,12.38
2023-05-08T04:52:57.344Z,12.50
2023-05-08T04:55:23.986Z,12.52
2023-05-08T04:57:50.641Z,12.47
2023-05-08T05:00:17.640Z,12.69
2023-05-08T05:02:44.328Z,12.64
2023-05-08T05:05:11.650Z,12.68
2023-05-08T05:07:38.786Z,12.71
2023-05-08T05:10:05.822Z,12.65
2023-05-08T05:12:32.476Z,12.80
2023-05-08T05:14:59.182Z,12.88
2023-05-08T05:17:25.853Z,13.00
2023-05-08T05:19:53.545Z,13.21
2023-05-08T05:22:20.212Z,13.28
2023-05-08T05:24:46.985Z,13.07
2023-05-08T05:27:13.671Z,12.86
2023-05-08T05:29:40.357Z,12.80
2023-05-08T05:32:07.532Z,12.81
2023-05-08T05:34:34.256Z,12.87
2023-05-08T05:37:01.182Z,12.68
2023-05-08T05:39:27.768Z,12.74
2023-05-08T05:41:54.488Z,12.85
2023-05-08T05:44:21.095Z,12.84
2023-05-08T05:46:47.719Z,12.81
2023-05-08T05:49:14.522Z,12.95
2023-05-08T05:51:41.372Z,13.15
2023-05-08T05:54:07.994Z,13.36
2023-05-08T05:56:34.557Z,13.58
2023-05-08T05:59:01.289Z,13.83
2023-05-08T06:01:29.218Z,14.10
2023-05-08T06:03:56.003Z,14.19
2023-05-08T06:06:22.745Z,14.44
2023-05-08T06:08:49.418Z,14.38
2023-05-08T06:11:16.074Z,14.58
2023-05-08T06:13:44.038Z,14.50
2023-05-08T06:16:10.702Z,14.35
2023-05-08T06:18:37.347Z,14.10
2023-05-08T06:21:04.174Z,14.09
2023-05-08T06:23:31.153Z,14.18
2023-05-08T06:25:57.750Z,14.19
2023-05-08T06:28:26.265Z,14.22
2023-05-08T06:30:53.166Z,14.20
2023-05-08T06:33:19.977Z,14.15
2023-05-08T06:35:49.672Z,14.14
2023-05-08T06:38:16.815Z,14.16
2023-05-08T06:40:44.668Z,13.95
2023-05-08T06:43:12.337Z,14.05
2023-05-08T06:45:39.998Z,14.12
2023-05-08T06:48:08.204Z,14.14
2023-05-08T06:50:38.610Z,14.27
2023-05-08T06:53:05.551Z,14.29
2023-05-08T06:55:32.154Z,14.29
2023-05-08T06:57:58.914Z,14.22
2023-05-08T07:00:25.713Z,14.30
2023-05-08T07:02:52.457Z,14.45
2023-05-08T07:05:20.200Z,14.69
2023-05-08T07:07:47.023Z,14.92
2023-05-08T07:10:13.977Z,15.40
2023-05-08T07:12:43.009Z,15.76
2023-05-08T07:15:23.960Z,15.79
2023-05-08T07:17:51.865Z,15.87
2023-05-08T07:20:18.528Z,15.70
2023-05-08T07:22:45.128Z,15.46
2023-05-08T07:25:12.826Z,15.50
2023-05-08T07:27:39.741Z,15.50
2023-05-08T07:30:07.027Z,15.57
2023-05-08T07:32:33.839Z,15.68
2023-05-08T07:35:02.715Z,15.84
2023-05-08T07:37:29.552Z,15.86
2023-05-08T07:39:56.281Z,15.86
2023-05-08T07:42:22.902Z,15.95
2023-05-08T07:44:54.978Z,16.03
2023-05-08T07:47:22.442Z,16.07
2023-05-08T07:49:49.190Z,16.02
2023-05-08T07:52:15.828Z,16.10
2023-05-08T07:54:42.772Z,16.23
2023-05-08T07:57:09.510Z,16.37
2023-05-08T07:59:36.137Z,16.53
2023-05-08T08:02:02.868Z,16.48
2023-05-08T08:04:29.681Z,16.85
2023-05-08T08:06:56.415Z,16.91
2023-05-08T08:09:23.044Z,17.07
2023-05-08T08:11:49.826Z,17.54
2023-05-08T08:14:16.551Z,17.16
2023-05-08T08:16:43.581Z,17.07
2023-05-08T08:19:10.957Z,17.26
2023-05-08T08:21:42.720Z,17.57
2023-05-08T08:24:11.663Z,17.50
2023-05-08T08:26:38.370Z,18.06
2023-05-08T08:29:05.032Z,18.38
2023-05-08T08:31:31.810Z,18.36
2023-05-08T08:33:58.573Z,17.95
2023-05-08T08:36:25.301Z,17.56
2023-05-08T08:38:52.277Z,17.63
2023-05-08T08:41:19.271Z,17.60
2023-05-08T08:43:46.123Z,17.63
2023-05-08T08:46:15.375Z,17.66
2023-05-08T08:48:46.642Z,17.96
2023-05-08T08:51:23.888Z,18.16
2023-05-08T08:53:59.754Z,18.39
2023-05-08T08:56:27.801Z,18.33
2023-05-08T08:58:59.566Z,18.50
2023-05-08T09:01:29.413Z,18.28
2023-05-08T09:03:59.895Z,18.43
2023-05-08T09:06:27.724Z,18.96
2023-05-08T09:09:00.822Z,19.51
2023-05-08T09:11:28.096Z,19.30
2023-05-08T09:13:55.748Z,19.24
2023-05-08T09:16:22.938Z,18.77
2023-05-08T09:18:49.795Z,18.60
2023-05-08T09:21:16.474Z,18.08
2023-05-08T09:24:03.704Z,17.80
2023-05-08T09:26:39.052Z,17.43
2023-05-08T09:29:16.753Z,16.42
2023-05-08T09:31:45.775Z,15.85
2023-05-08T09:34:27.112Z,15.43
2023-05-08T09:37:12.101Z,15.11
2023-05-08T09:39:45.688Z,14.88
2023-05-08T09:42:12.656Z,14.83
2023-05-08T09:44:57.468Z,14.58
2023-05-08T09:47:25.305Z,14.25
2023-05-08T09:50:08.996Z,14.25
2023-05-08T09:52:37.397Z,14.42
2023-05-08T09:55:09.644Z,14.64
2023-05-08T09:57:39.434Z,14.72
2023-05-08T10:00:10.264Z,14.97
2023-05-08T10:02:38.942Z,15.05
2023-05-08T10:05:27.610Z,15.09
2023-05-08T10:07:54.431Z,15.06
2023-05-08T10:10:28.033Z,15.03
2023-05-08T10:12:56.444Z,15.23
2023-05-08T10:15:30.107Z,15.77
2023-05-08T10:18:06.131Z,15.67
2023-05-08T10:20:34.433Z,16.17
2023-05-08T10:23:03.615Z,16.36
2023-05-08T10:25:34.808Z,16.27
2023-05-08T10:28:18.104Z,16.41
2023-05-08T10:30:48.943Z,16.86
2023-05-08T10:33:20.975Z,16.61
2023-05-08T10:35:48.889Z,16.75
2023-05-08T10:38:16.923Z,16.69
2023-05-08T10:40:43.836Z,16.29
2023-05-08T10:43:12.535Z,16.61
2023-05-08T10:45:39.547Z,16.65
2023-05-08T10:48:33.309Z,16.62
2023-05-08T10:51:12.774Z,16.47
2023-05-08T10:54:06.542Z,16.86
2023-05-08T10:56:33.356Z,16.40
2023-05-08T10:58:59.964Z,16.97
2023-05-08T11:01:26.824Z,17.13
2023-05-08T11:03:56.100Z,16.84
2023-05-08T11:06:46.607Z,17.03
2023-05-08T11:09:21.438Z,17.08
2023-05-08T11:11:59.272Z,17.32
2023-05-08T11:14:27.072Z,17.20
2023-05-08T11:16:53.721Z,16.84
2023-05-08T11:19:22.213Z,16.68
2023-05-08T11:22:24.061Z,17.07
2023-05-08T11:24:56.393Z,17.03
2023-05-08T11:28:00.864Z,16.49
2023-05-08T11:30:34.889Z,17.09
2023-05-08T11:33:05.235Z,17.10
2023-05-08T11:35:42.260Z,16.54
2023-05-08T11:38:17.086Z,16.51
2023-05-08T11:40:53.273Z,15.96
2023-05-08T11:43:37.704Z,16.36
2023-05-08T11:46:08.492Z,16.75
2023-05-08T11:48:36.031Z,16.62
2023-05-08T11:51:03.895Z,16.23
2023-05-08T11:53:31.470Z,16.36
2023-05-08T11:55:59.838Z,16.32
2023-05-08T11:58:26.869Z,16.55
2023-05-08T12:00:54.761Z,16.53
2023-05-08T12:03:23.232Z,16.17
2023-05-08T12:05:50.577Z,16.07
2023-05-08T12:08:18.754Z,16.03
2023-05-08T12:10:56.920Z,15.43
2023-05-08T12:13:26.093Z,15.32
2023-05-08T12:15:58.199Z,15.10
2023-05-08T12:18:26.544Z,14.93
2023-05-08T12:20:58.536Z,14.77
2023-05-08T12:23:26.533Z,14.27
2023-05-08T12:25:56.548Z,13.41
2023-05-08T12:28:23.145Z,12.79
2023-05-08T12:30:50.235Z,12.77
2023-05-08T12:33:18.653Z,12.65
2023-05-08T12:35:45.422Z,12.59
2023-05-08T12:38:12.523Z,12.79
2023-05-08T12:40:47.814Z,12.91
2023-05-08T12:43:14.918Z,12.80
2023-05-08T12:45:43.002Z,12.84
2023-05-08T12:48:12.137Z,12.81
2023-05-08T12:50:43.375Z,12.69
2023-05-08T12:53:11.461Z,12.70
2023-05-08T12:55:40.293Z,12.76
2023-05-08T12:58:15.584Z,13.05
2023-05-08T13:00:52.002Z,13.54
2023-05-08T13:03:25.716Z,13.92
2023-05-08T13:05:54.135Z,13.03
2023-05-08T13:08:21.123Z,13.00
2023-05-08T13:10:51.931Z,13.24
2023-05-08T13:13:20.427Z,13.67
2023-05-08T13:15:57.473Z,14.20
2023-05-08T13:18:26.997Z,14.28
2023-05-08T13:20:57.252Z,14.03
2023-05-08T13:23:24.439Z,13.91
2023-05-08T13:25:51.528Z,13.98
2023-05-08T13:28:18.103Z,13.69
2023-05-08T13:30:44.648Z,13.73
2023-05-08T13:33:11.491Z,13.55
2023-05-08T13:35:38.705Z,13.27
2023-05-08T13:38:06.131Z,13.37
2023-05-08T13:40:32.893Z,13.84
2023-05-08T13:42:59.553Z,13.95
2023-05-08T13:45:26.519Z,13.50
2023-05-08T13:47:53.299Z,14.27
2023-05-08T13:50:25.211Z,14.23
2023-05-08T13:52:54.738Z,14.01
2023-05-08T13:55:23.450Z,13.98
2023-05-08T13:57:50.630Z,13.20
2023-05-08T14:00:18.210Z,12.88
2023-05-08T14:02:45.012Z,12.91
2023-05-08T14:05:12.147Z,12.83
2023-05-08T14:07:46.742Z,13.15
2023-05-08T14:10:13.432Z,13.41
2023-05-08T14:12:40.523Z,13.30
2023-05-08T14:15:07.963Z,13.23
2023-05-08T14:17:34.702Z,13.28
2023-05-08T14:20:01.280Z,13.56
2023-05-08T14:22:28.032Z,13.79
2023-05-08T14:24:54.677Z,13.91
2023-05-08T14:27:21.918Z,13.62
2023-05-08T14:29:48.780Z,13.51
2023-05-08T14:32:15.505Z,12.53
2023-05-08T14:34:42.289Z,12.64
2023-05-08T14:37:08.918Z,12.39
2023-05-08T14:39:35.622Z,12.05
2023-05-08T14:42:18.242Z,11.99
2023-05-08T14:44:49.230Z,11.89
2023-05-08T14:47:16.054Z,12.13
2023-05-08T14:49:42.790Z,12.39
2023-05-08T14:52:09.490Z,12.25
2023-05-08T14:54:36.272Z,12.43
2023-05-08T14:57:03.070Z,12.29
2023-05-08T14:59:29.796Z,12.26
2023-05-08T15:01:56.467Z,12.09
2023-05-08T15:04:23.413Z,11.95
2023-05-08T15:06:50.163Z,12.08
2023-05-08T15:09:17.104Z,12.10
2023-05-08T15:11:44.046Z,11.95
2023-05-08T15:14:10.710Z,11.63
2023-05-08T15:16:37.547Z,11.37
2023-05-08T15:19:04.368Z,11.50
2023-05-08T15:21:31.195Z,11.44
2023-05-08T15:23:57.862Z,11.67
2023-05-08T15:26:24.571Z,11.51
2023-05-08T15:28:51.505Z,11.34
2023-05-08T15:31:18.470Z,11.10
2023-05-08T15:33:45.702Z,11.42
2023-05-08T15:36:15.570Z,11.09
2023-05-08T15:38:42.577Z,11.08
2023-05-08T15:41:15.400Z,11.03
2023-05-08T15:43:43.004Z,10.95
2023-05-08T15:46:09.972Z,11.14
2023-05-08T15:48:36.692Z,10.65
2023-05-08T15:51:03.509Z,10.67
2023-05-08T15:53:30.389Z,10.86
2023-05-08T15:55:57.438Z,11.08
2023-05-08T15:58:24.184Z,11.10
2023-05-08T16:00:55.835Z,11.19
2023-05-08T16:03:22.704Z,11.28
2023-05-08T16:05:49.756Z,11.21
2023-05-08T16:08:16.411Z,11.25
2023-05-08T16:10:56.965Z,11.29
2023-05-08T16:13:47.632Z,10.87
2023-05-08T16:16:14.677Z,10.98
2023-05-08T16:18:41.336Z,10.80
2023-05-08T16:24:45.856Z,10.74
2023-05-08T16:27:23.705Z,10.81
2023-05-08T16:29:50.305Z,11.03
2023-05-08T16:32:30.701Z,11.20
2023-05-08T16:35:00.496Z,11.33
2023-05-08T16:37:28.681Z,10.96
2023-05-08T16:40:02.094Z,10.87
2023-05-08T16:42:29.262Z,10.90
2023-05-08T16:44:55.853Z,10.79
2023-05-08T16:47:22.601Z,10.72
2023-05-08T16:50:01.927Z,10.53
2023-05-08T16:52:49.999Z,10.67
2023-05-08T16:55:16.798Z,10.72
2023-05-08T16:57:50.227Z,10.43
2023-05-08T17:00:28.641Z,10.35
2023-05-08T17:02:58.526Z,10.51
2023-05-08T17:05:54.603Z,10.40
2023-05-08T17:08:21.098Z,10.28
2023-05-08T17:10:47.552Z,10.12
2023-05-08T17:15:40.561Z,10.26
2023-05-08T17:18:07.180Z,10.32
2023-05-08T17:20:40.755Z,10.14
2023-05-08T17:23:07.473Z,10.19
2023-05-08T17:25:33.921Z,10.18
2023-05-08T17:30:48.215Z,9.80
2023-05-08T17:36:30.681Z,9.74
2023-05-08T17:38:57.178Z,9.57
2023-05-08T17:41:23.695Z,9.46
2023-05-08T17:46:39.678Z,9.79
2023-05-08T17:49:06.388Z,9.79
2023-05-08T17:51:33.422Z,9.88
2023-05-08T17:54:24.763Z,9.94
2023-05-08T17:56:51.387Z,9.87
2023-05-08T17:59:17.881Z,9.77
2023-05-08T18:01:44.392Z,9.63
2023-05-08T18:04:12.931Z,9.55
2023-05-08T18:06:39.582Z,9.60
2023-05-08T18:09:06.140Z,9.49
2023-05-08T18:11:35.529Z,9.35
2023-05-08T18:14:02.264Z,9.44
2023-05-08T18:16:28.853Z,9.44
2023-05-08T18:19:04.005Z,9.52
2023-05-08T18:21:31.664Z,9.39
2023-05-08T18:23:59.268Z,9.30
2023-05-08T18:26:25.935Z,9.08
2023-05-08T18:28:52.492Z,8.99
2023-05-08T18:31:19.311Z,8.98
2023-05-08T18:33:45.900Z,9.04
2023-05-08T18:36:26.759Z,9.07
2023-05-08T18:38:53.346Z,8.99
2023-05-08T18:41:20.149Z,9.00
2023-05-08T18:43:47.006Z,8.97
2023-05-08T18:46:30.252Z,8.90
2023-05-08T18:48:56.974Z,8.86
2023-05-08T18:51:23.499Z,8.83
2023-05-08T18:53:50.030Z,8.80
2023-05-08T18:56:21.138Z,8.79
2023-05-08T18:58:47.666Z,8.71
2023-05-08T19:01:16.409Z,8.69
2023-05-08T19:03:43.072Z,8.72
2023-05-08T19:09:05.453Z,8.48
2023-05-08T19:11:31.970Z,8.39
2023-05-08T19:13:58.754Z,8.36
2023-05-08T19:16:25.537Z,8.25
2023-05-08T19:19:02.829Z,8.32
2023-05-08T19:21:29.531Z,8.25
2023-05-08T19:23:56.096Z,8.18
2023-05-08T19:26:22.908Z,8.12
2023-05-08T19:28:49.365Z,8.10
2023-05-08T19:31:15.960Z,8.06
2023-05-08T19:33:44.046Z,8.01
2023-05-08T19:36:10.550Z,7.99
2023-05-08T19:38:40.083Z,7.91
2023-05-08T19:41:07.118Z,7.96
2023-05-08T19:43:33.591Z,7.88
2023-05-08T19:46:02.812Z,7.86
2023-05-08T19:48:35.202Z,7.81
2023-05-08T19:51:08.462Z,7.66
2023-05-08T19:53:35.069Z,7.70
2023-05-08T19:56:01.533Z,7.76
2023-05-08T19:58:28.053Z,7.59
2023-05-08T20:00:54.643Z,7.59
2023-05-08T20:03:21.285Z,7.61
2023-05-08T20:05:48.005Z,7.49
2023-05-08T20:08:14.624Z,7.39
2023-05-08T20:10:41.197Z,7.26
2023-05-08T20:13:07.784Z,7.35
2023-05-08T20:15:34.241Z,7.24
2023-05-08T20:18:00.725Z,7.25
2023-05-08T20:20:31.462Z,7.30
2023-05-08T20:22:58.142Z,7.21
2023-05-08T20:25:24.662Z,7.25
2023-05-08T20:27:51.205Z,7.21
2023-05-08T20:30:17.815Z,7.36
2023-05-08T20:32:44.450Z,7.24
2023-05-08T20:35:11.130Z,7.02
2023-05-08T20:37:44.631Z,6.93
2023-05-08T20:40:11.760Z,6.85
2023-05-08T20:42:38.766Z,6.83
2023-05-08T20:45:05.461Z,6.81
2023-05-08T20:47:32.082Z,6.76
2023-05-08T20:49:58.626Z,6.86
2023-05-08T20:52:25.148Z,6.79
2023-05-08T20:54:51.619Z,6.77
2023-05-08T20:57:18.453Z,6.63
2023-05-08T20:59:47.327Z,6.55
2023-05-08T21:02:14.001Z,6.52
2023-05-08T21:04:40.626Z,6.39
2023-05-08T21:07:07.197Z,6.34
2023-05-08T21:09:33.724Z,6.29
2023-05-08T21:12:00.708Z,6.19
2023-05-08T21:14:27.248Z,6.12
2023-05-08T21:16:56.500Z,6.00
2023-05-08T21:19:23.795Z,6.01
2023-05-08T21:21:50.249Z,6.07
2023-05-08T21:24:16.811Z,6.23
2023-05-08T21:26:43.448Z,6.26
2023-05-08T21:29:10.918Z,6.13
2023-05-08T21:31:37.501Z,6.03
2023-05-08T21:34:04.059Z,6.02
2023-05-08T21:36:32.162Z,5.99
2023-05-08T21:38:58.700Z,5.90
2023-05-08T21:41:25.192Z,5.90
2023-05-08T21:43:51.682Z,5.92
2023-05-08T21:46:18.223Z,5.85
2023-05-08T21:48:44.784Z,5.90
2023-05-08T21:51:11.299Z,5.81
2023-05-08T21:53:37.792Z,5.73
2023-05-08T21:56:04.359Z,5.65
2023-05-08T21:58:30.999Z,5.64
2023-05-08T22:00:58.661Z,5.62
2023-05-08T22:03:25.515Z,5.61
2023-05-08T22:05:52.140Z,5.56
2023-05-08T22:08:18.631Z,5.51
2023-05-08T22:10:46.312Z,5.47
2023-05-08T22:13:15.368Z,5.50
2023-05-08T22:15:42.848Z,5.46
2023-05-08T22:18:09.466Z,5.55
2023-05-08T22:20:36.055Z,5.49
2023-05-08T22:23:02.784Z,5.40
2023-05-08T22:25:29.443Z,5.44
2023-05-08T22:27:56.109Z,5.37
2023-05-08T22:30:23.868Z,5.34
2023-05-08T22:32:55.975Z,5.19
2023-05-08T22:35:24.445Z,5.23
2023-05-08T22:37:52.424Z,5.15
2023-05-08T22:40:19.276Z,5.14
2023-05-08T22:42:46.459Z,5.15
2023-05-08T22:45:15.332Z,5.11
2023-05-08T22:47:42.469Z,5.06
2023-05-08T22:50:12.490Z,5.04
2023-05-08T22:52:39.546Z,5.06
2023-05-08T22:55:06.509Z,4.98
2023-05-08T22:57:33.037Z,4.96
2023-05-08T22:59:59.503Z,4.92
2023-05-08T23:02:31.211Z,4.92
2023-05-08T23:04:57.864Z,4.93
2023-05-08T23:07:24.310Z,4.91
2023-05-08T23:09:50.856Z,4.93
2023-05-08T23:12:17.264Z,4.79
2023-05-08T23:14:46.550Z,4.81
2023-05-08T23:17:14.111Z,4.78
2023-05-08T23:19:41.515Z,4.73
2023-05-08T23:22:08.983Z,4.67
2023-05-08T23:24:36.185Z,4.65
2023-05-08T23:27:02.877Z,4.60
2023-05-08T23:29:29.593Z,4.58
2023-05-08T23:31:56.186Z,4.60
2023-05-08T23:34:22.852Z,4.56
2023-05-08T23:36:49.468Z,4.55
2023-05-08T23:39:18.567Z,4.48
2023-05-08T23:41:45.304Z,4.42
2023-05-08T23:44:11.996Z,4.52
2023-05-08T23:46:38.586Z,4.56
2023-05-08T23:49:05.700Z,4.59
2023-05-08T23:51:34.188Z,4.59
2023-05-08T23:54:01.100Z,4.49
2023-05-08T23:56:27.745Z,4.49
2023-05-08T23:58:54.381Z,4.49
